Cove Fort, Utah
Current Conditions -  °F | °C
As of 7:52 AM on Wednesday 22 Oct 2014 (Local Time) from KMLF Reporting Station
Clear Clear  
Wind Chill: 33°   Ceiling: Unl
Heat Index: 38°   Visibility: 10mi
Dew Point: 26°   Wind: 6mph
Humidity: 62%   Direction: 310°NW
Pressure: 30.16"   Gusts: NA
Location:  38.344°N, 112.579°W
Report Text: KMLF 221352Z AUTO 31005KT 10SM CLR 03/M03 A3016 RMK AO2 SLP193 T00331033 TSNO
Loading
Personal Weather Stations






























Interactive Weather Map
Tropical Storm Tracking
New forecast layout! Learn more

10-Day Weather Forecast

Advertisements
Track Severe Weather on mobile